sensor_id;sensor_type;location;lat;lon;timestamp;temperature;humidity
32522;DHT22;18963;51.504;5.316;2022-10-17T00:00:15;13.50;99.90
32522;DHT22;18963;51.504;5.316;2022-10-17T00:02:41;13.60;99.90
32522;DHT22;18963;51.504;5.316;2022-10-17T00:05:07;13.60;99.90
32522;DHT22;18963;51.504;5.316;2022-10-17T00:07:32;13.60;99.90
32522;DHT22;18963;51.504;5.316;2022-10-17T00:09:58;13.60;99.90
32522;DHT22;18963;51.504;5.316;2022-10-17T00:12:23;13.70;99.90
32522;DHT22;18963;51.504;5.316;2022-10-17T00:14:49;13.70;99.90
32522;DHT22;18963;51.504;5.316;2022-10-17T00:17:15;13.70;99.90
32522;DHT22;18963;51.504;5.316;2022-10-17T00:19:41;13.70;99.90
32522;DHT22;18963;51.504;5.316;2022-10-17T00:22:07;13.70;99.90
32522;DHT22;18963;51.504;5.316;2022-10-17T00:24:32;13.70;99.90
32522;DHT22;18963;51.504;5.316;2022-10-17T00:26:58;13.70;99.90
32522;DHT22;18963;51.504;5.316;2022-10-17T00:29:23;13.70;99.90
32522;DHT22;18963;51.504;5.316;2022-10-17T00:31:49;13.70;99.90
32522;DHT22;18963;51.504;5.316;2022-10-17T00:34:14;13.70;99.90
32522;DHT22;18963;51.504;5.316;2022-10-17T00:36:40;13.80;99.90
32522;DHT22;18963;51.504;5.316;2022-10-17T00:39:05;13.70;99.90
32522;DHT22;18963;51.504;5.316;2022-10-17T00:41:32;13.80;99.90
32522;DHT22;18963;51.504;5.316;2022-10-17T00:44:53;13.80;99.90
32522;DHT22;18963;51.504;5.316;2022-10-17T00:46:51;13.90;99.90
32522;DHT22;18963;51.504;5.316;2022-10-17T00:49:17;13.90;99.90
32522;DHT22;18963;51.504;5.316;2022-10-17T00:51:53;13.90;99.90
32522;DHT22;18963;51.504;5.316;2022-10-17T00:54:23;14.00;99.90
32522;DHT22;18963;51.504;5.316;2022-10-17T00:56:50;14.00;99.90
32522;DHT22;18963;51.504;5.316;2022-10-17T00:59:18;14.00;99.90
32522;DHT22;18963;51.504;5.316;2022-10-17T01:02:13;14.10;99.90
32522;DHT22;18963;51.504;5.316;2022-10-17T01:04:41;14.10;99.90
32522;DHT22;18963;51.504;5.316;2022-10-17T01:07:07;14.10;99.90
32522;DHT22;18963;51.504;5.316;2022-10-17T01:09:33;14.10;99.90
32522;DHT22;18963;51.504;5.316;2022-10-17T01:12:23;14.20;99.90
32522;DHT22;18963;51.504;5.316;2022-10-17T01:23:16;14.30;99.90
32522;DHT22;18963;51.504;5.316;2022-10-17T01:25:52;14.30;99.90
32522;DHT22;18963;51.504;5.316;2022-10-17T01:31:15;14.30;99.90
32522;DHT22;18963;51.504;5.316;2022-10-17T01:33:52;14.30;99.90
32522;DHT22;18963;51.504;5.316;2022-10-17T01:36:55;14.30;99.90
32522;DHT22;18963;51.504;5.316;2022-10-17T01:45:02;14.40;99.90
32522;DHT22;18963;51.504;5.316;2022-10-17T01:47:30;14.40;99.90
32522;DHT22;18963;51.504;5.316;2022-10-17T01:50:02;14.40;99.90
32522;DHT22;18963;51.504;5.316;2022-10-17T01:52:44;14.40;99.90
32522;DHT22;18963;51.504;5.316;2022-10-17T01:55:19;14.40;99.90
32522;DHT22;18963;51.504;5.316;2022-10-17T01:57:52;14.40;99.90
32522;DHT22;18963;51.504;5.316;2022-10-17T02:00:21;14.40;99.90
32522;DHT22;18963;51.504;5.316;2022-10-17T02:02:50;14.40;99.90
32522;DHT22;18963;51.504;5.316;2022-10-17T02:05:21;14.40;99.90
32522;DHT22;18963;51.504;5.316;2022-10-17T02:07:48;14.40;99.90
32522;DHT22;18963;51.504;5.316;2022-10-17T02:10:24;14.40;99.90
32522;DHT22;18963;51.504;5.316;2022-10-17T02:15:51;14.40;99.90
32522;DHT22;18963;51.504;5.316;2022-10-17T02:21:32;14.50;99.90
32522;DHT22;18963;51.504;5.316;2022-10-17T02:29:35;14.40;99.90
32522;DHT22;18963;51.504;5.316;2022-10-17T02:32:08;14.40;99.90
32522;DHT22;18963;51.504;5.316;2022-10-17T02:34:39;14.40;99.90
32522;DHT22;18963;51.504;5.316;2022-10-17T02:37:07;14.30;99.90
32522;DHT22;18963;51.504;5.316;2022-10-17T02:39:34;14.30;99.90
32522;DHT22;18963;51.504;5.316;2022-10-17T02:42:02;14.30;99.90
32522;DHT22;18963;51.504;5.316;2022-10-17T02:44:31;14.20;99.90
32522;DHT22;18963;51.504;5.316;2022-10-17T02:47:15;14.30;99.90
32522;DHT22;18963;51.504;5.316;2022-10-17T02:49:49;14.30;99.90
32522;DHT22;18963;51.504;5.316;2022-10-17T02:52:27;14.30;99.90
32522;DHT22;18963;51.504;5.316;2022-10-17T02:54:58;14.30;99.90
32522;DHT22;18963;51.504;5.316;2022-10-17T02:58:01;14.30;99.90
32522;DHT22;18963;51.504;5.316;2022-10-17T03:00:25;14.30;99.90
32522;DHT22;18963;51.504;5.316;2022-10-17T03:02:53;14.30;99.90
32522;DHT22;18963;51.504;5.316;2022-10-17T03:05:24;14.30;99.90
32522;DHT22;18963;51.504;5.316;2022-10-17T03:07:51;14.30;99.90
32522;DHT22;18963;51.504;5.316;2022-10-17T03:10:17;14.30;99.90
32522;DHT22;18963;51.504;5.316;2022-10-17T03:12:43;14.30;99.90
32522;DHT22;18963;51.504;5.316;2022-10-17T03:15:09;14.30;99.90
32522;DHT22;18963;51.504;5.316;2022-10-17T03:17:36;14.30;99.90
32522;DHT22;18963;51.504;5.316;2022-10-17T03:20:03;14.30;99.90
32522;DHT22;18963;51.504;5.316;2022-10-17T03:22:29;14.30;99.90
32522;DHT22;18963;51.504;5.316;2022-10-17T03:24:54;14.30;99.90
32522;DHT22;18963;51.504;5.316;2022-10-17T03:27:20;14.30;99.90
32522;DHT22;18963;51.504;5.316;2022-10-17T03:29:46;14.40;99.90
32522;DHT22;18963;51.504;5.316;2022-10-17T03:32:11;14.40;99.90
32522;DHT22;18963;51.504;5.316;2022-10-17T03:34:37;14.40;99.90
32522;DHT22;18963;51.504;5.316;2022-10-17T03:37:03;14.50;99.90
32522;DHT22;18963;51.504;5.316;2022-10-17T03:39:28;14.50;99.90
32522;DHT22;18963;51.504;5.316;2022-10-17T03:41:54;14.50;99.90
32522;DHT22;18963;51.504;5.316;2022-10-17T03:44:19;14.60;99.90
32522;DHT22;18963;51.504;5.316;2022-10-17T03:46:45;14.70;99.90
32522;DHT22;18963;51.504;5.316;2022-10-17T03:49:11;14.70;99.90
32522;DHT22;18963;51.504;5.316;2022-10-17T03:51:36;14.70;99.90
32522;DHT22;18963;51.504;5.316;2022-10-17T03:54:02;14.70;99.90
32522;DHT22;18963;51.504;5.316;2022-10-17T03:56:28;14.70;99.90
32522;DHT22;18963;51.504;5.316;2022-10-17T03:58:54;14.80;99.90
32522;DHT22;18963;51.504;5.316;2022-10-17T04:01:20;14.70;99.90
32522;DHT22;18963;51.504;5.316;2022-10-17T04:03:51;14.70;99.90
32522;DHT22;18963;51.504;5.316;2022-10-17T04:06:18;14.70;99.90
32522;DHT22;18963;51.504;5.316;2022-10-17T04:08:44;14.70;99.90
32522;DHT22;18963;51.504;5.316;2022-10-17T04:11:14;14.80;99.90
32522;DHT22;18963;51.504;5.316;2022-10-17T04:13:40;14.80;99.90
32522;DHT22;18963;51.504;5.316;2022-10-17T04:16:09;14.80;99.90
32522;DHT22;18963;51.504;5.316;2022-10-17T04:18:36;14.80;99.90
32522;DHT22;18963;51.504;5.316;2022-10-17T04:21:02;14.90;99.90
32522;DHT22;18963;51.504;5.316;2022-10-17T04:23:28;14.90;99.90
32522;DHT22;18963;51.504;5.316;2022-10-17T04:25:58;14.90;99.90
32522;DHT22;18963;51.504;5.316;2022-10-17T04:28:24;14.90;99.90
32522;DHT22;18963;51.504;5.316;2022-10-17T04:33:27;15.00;99.90
32522;DHT22;18963;51.504;5.316;2022-10-17T04:36:05;15.00;99.90
32522;DHT22;18963;51.504;5.316;2022-10-17T04:38:31;15.00;99.90
32522;DHT22;18963;51.504;5.316;2022-10-17T04:40:58;15.00;99.90
32522;DHT22;18963;51.504;5.316;2022-10-17T04:43:30;15.00;99.90
32522;DHT22;18963;51.504;5.316;2022-10-17T04:46:00;15.00;99.90
32522;DHT22;18963;51.504;5.316;2022-10-17T04:48:28;15.00;99.90
32522;DHT22;18963;51.504;5.316;2022-10-17T04:51:09;15.00;99.90
32522;DHT22;18963;51.504;5.316;2022-10-17T04:53:37;15.00;99.90
32522;DHT22;18963;51.504;5.316;2022-10-17T04:56:11;15.00;99.90
32522;DHT22;18963;51.504;5.316;2022-10-17T04:58:37;15.00;99.90
32522;DHT22;18963;51.504;5.316;2022-10-17T05:01:05;15.00;99.90
32522;DHT22;18963;51.504;5.316;2022-10-17T05:03:31;15.10;99.90
32522;DHT22;18963;51.504;5.316;2022-10-17T05:05:57;15.10;99.90
32522;DHT22;18963;51.504;5.316;2022-10-17T05:08:22;15.10;99.90
32522;DHT22;18963;51.504;5.316;2022-10-17T05:10:48;15.10;99.90
32522;DHT22;18963;51.504;5.316;2022-10-17T05:13:14;15.20;99.90
32522;DHT22;18963;51.504;5.316;2022-10-17T05:15:39;15.20;99.90
32522;DHT22;18963;51.504;5.316;2022-10-17T05:18:05;15.30;99.90
32522;DHT22;18963;51.504;5.316;2022-10-17T05:20:32;15.30;99.90
32522;DHT22;18963;51.504;5.316;2022-10-17T05:22:58;15.30;99.90
32522;DHT22;18963;51.504;5.316;2022-10-17T05:25:24;15.40;99.90
32522;DHT22;18963;51.504;5.316;2022-10-17T05:27:50;15.30;99.90
32522;DHT22;18963;51.504;5.316;2022-10-17T05:30:15;15.30;99.90
32522;DHT22;18963;51.504;5.316;2022-10-17T05:32:41;15.30;99.90
32522;DHT22;18963;51.504;5.316;2022-10-17T05:35:07;15.30;99.90
32522;DHT22;18963;51.504;5.316;2022-10-17T05:37:33;15.40;99.90
32522;DHT22;18963;51.504;5.316;2022-10-17T05:39:58;15.40;99.90
32522;DHT22;18963;51.504;5.316;2022-10-17T05:42:24;15.40;99.90
32522;DHT22;18963;51.504;5.316;2022-10-17T05:44:49;15.40;99.90
32522;DHT22;18963;51.504;5.316;2022-10-17T05:47:16;15.50;99.90
32522;DHT22;18963;51.504;5.316;2022-10-17T05:49:42;15.50;99.90
32522;DHT22;18963;51.504;5.316;2022-10-17T05:52:07;15.50;99.90
32522;DHT22;18963;51.504;5.316;2022-10-17T05:54:33;15.50;99.90
32522;DHT22;18963;51.504;5.316;2022-10-17T05:56:59;15.50;99.90
32522;DHT22;18963;51.504;5.316;2022-10-17T05:59:25;15.60;99.90
32522;DHT22;18963;51.504;5.316;2022-10-17T06:01:51;15.60;99.90
32522;DHT22;18963;51.504;5.316;2022-10-17T06:04:16;15.60;99.90
32522;DHT22;18963;51.504;5.316;2022-10-17T06:06:42;15.60;99.90
32522;DHT22;18963;51.504;5.316;2022-10-17T06:09:08;15.60;99.90
32522;DHT22;18963;51.504;5.316;2022-10-17T06:11:34;15.60;99.90
32522;DHT22;18963;51.504;5.316;2022-10-17T06:14:00;15.70;99.90
32522;DHT22;18963;51.504;5.316;2022-10-17T06:16:26;15.70;99.90
32522;DHT22;18963;51.504;5.316;2022-10-17T06:18:51;15.70;99.90
32522;DHT22;18963;51.504;5.316;2022-10-17T06:21:23;15.70;99.90
32522;DHT22;18963;51.504;5.316;2022-10-17T06:23:49;15.70;99.90
32522;DHT22;18963;51.504;5.316;2022-10-17T06:26:15;15.80;99.90
32522;DHT22;18963;51.504;5.316;2022-10-17T06:28:41;15.80;99.90
32522;DHT22;18963;51.504;5.316;2022-10-17T06:31:12;15.80;99.90
32522;DHT22;18963;51.504;5.316;2022-10-17T06:33:38;15.90;99.90
32522;DHT22;18963;51.504;5.316;2022-10-17T06:36:05;15.90;99.90
32522;DHT22;18963;51.504;5.316;2022-10-17T06:38:32;15.90;99.90
32522;DHT22;18963;51.504;5.316;2022-10-17T06:41:06;15.90;99.90
32522;DHT22;18963;51.504;5.316;2022-10-17T06:43:33;16.00;99.90
32522;DHT22;18963;51.504;5.316;2022-10-17T06:45:59;16.00;99.90
32522;DHT22;18963;51.504;5.316;2022-10-17T06:48:24;16.00;99.90
32522;DHT22;18963;51.504;5.316;2022-10-17T06:50:50;16.00;99.90
32522;DHT22;18963;51.504;5.316;2022-10-17T06:53:15;16.00;99.90
32522;DHT22;18963;51.504;5.316;2022-10-17T06:55:41;16.10;99.90
32522;DHT22;18963;51.504;5.316;2022-10-17T06:58:07;16.10;99.90
32522;DHT22;18963;51.504;5.316;2022-10-17T07:00:32;16.10;99.90
32522;DHT22;18963;51.504;5.316;2022-10-17T07:02:58;16.20;99.90
32522;DHT22;18963;51.504;5.316;2022-10-17T07:05:24;16.20;99.90
32522;DHT22;18963;51.504;5.316;2022-10-17T07:07:49;16.30;99.90
32522;DHT22;18963;51.504;5.316;2022-10-17T07:10:15;16.30;99.90
32522;DHT22;18963;51.504;5.316;2022-10-17T07:12:40;16.30;99.90
32522;DHT22;18963;51.504;5.316;2022-10-17T07:15:07;16.40;99.90
32522;DHT22;18963;51.504;5.316;2022-10-17T07:17:32;16.40;99.90
32522;DHT22;18963;51.504;5.316;2022-10-17T07:19:58;16.40;99.90
32522;DHT22;18963;51.504;5.316;2022-10-17T07:22:23;16.50;99.90
32522;DHT22;18963;51.504;5.316;2022-10-17T07:24:49;16.50;99.90
32522;DHT22;18963;51.504;5.316;2022-10-17T07:27:15;16.50;99.90
32522;DHT22;18963;51.504;5.316;2022-10-17T07:29:40;16.50;99.90
32522;DHT22;18963;51.504;5.316;2022-10-17T07:32:06;16.50;99.90
32522;DHT22;18963;51.504;5.316;2022-10-17T07:34:33;16.50;99.90
32522;DHT22;18963;51.504;5.316;2022-10-17T07:36:59;16.50;99.90
32522;DHT22;18963;51.504;5.316;2022-10-17T07:39:25;16.50;99.90
32522;DHT22;18963;51.504;5.316;2022-10-17T07:41:51;16.50;99.90
32522;DHT22;18963;51.504;5.316;2022-10-17T07:44:17;16.50;99.90
32522;DHT22;18963;51.504;5.316;2022-10-17T07:46:42;16.40;99.90
32522;DHT22;18963;51.504;5.316;2022-10-17T07:52:48;16.20;99.90
32522;DHT22;18963;51.504;5.316;2022-10-17T07:55:23;16.10;99.90
32522;DHT22;18963;51.504;5.316;2022-10-17T07:57:49;16.10;99.90
32522;DHT22;18963;51.504;5.316;2022-10-17T08:00:15;16.10;99.90
32522;DHT22;18963;51.504;5.316;2022-10-17T08:02:40;16.10;99.90
32522;DHT22;18963;51.504;5.316;2022-10-17T08:05:06;16.00;99.90
32522;DHT22;18963;51.504;5.316;2022-10-17T08:07:32;16.10;99.90
32522;DHT22;18963;51.504;5.316;2022-10-17T08:09:58;16.10;99.90
32522;DHT22;18963;51.504;5.316;2022-10-17T08:12:23;16.10;99.90
32522;DHT22;18963;51.504;5.316;2022-10-17T08:14:50;16.10;99.90
32522;DHT22;18963;51.504;5.316;2022-10-17T08:17:15;16.10;99.90
32522;DHT22;18963;51.504;5.316;2022-10-17T08:19:41;16.10;99.90
32522;DHT22;18963;51.504;5.316;2022-10-17T08:22:07;16.10;99.90
32522;DHT22;18963;51.504;5.316;2022-10-17T08:24:34;16.10;99.90
32522;DHT22;18963;51.504;5.316;2022-10-17T08:30:11;16.10;99.90
32522;DHT22;18963;51.504;5.316;2022-10-17T08:32:37;16.10;99.90
32522;DHT22;18963;51.504;5.316;2022-10-17T08:35:03;16.10;99.90
32522;DHT22;18963;51.504;5.316;2022-10-17T08:37:28;16.10;99.90
32522;DHT22;18963;51.504;5.316;2022-10-17T08:39:55;16.10;99.90
32522;DHT22;18963;51.504;5.316;2022-10-17T08:47:50;16.10;99.90
32522;DHT22;18963;51.504;5.316;2022-10-17T08:56:04;16.10;99.90
32522;DHT22;18963;51.504;5.316;2022-10-17T08:58:33;16.20;99.90
32522;DHT22;18963;51.504;5.316;2022-10-17T09:06:36;16.20;99.90
32522;DHT22;18963;51.504;5.316;2022-10-17T09:09:12;16.20;99.90
32522;DHT22;18963;51.504;5.316;2022-10-17T09:17:40;16.30;99.90
32522;DHT22;18963;51.504;5.316;2022-10-17T09:23:01;16.30;99.90
32522;DHT22;18963;51.504;5.316;2022-10-17T09:25:41;16.20;99.90
32522;DHT22;18963;51.504;5.316;2022-10-17T09:33:37;16.20;99.90
32522;DHT22;18963;51.504;5.316;2022-10-17T09:36:08;16.20;99.90
32522;DHT22;18963;51.504;5.316;2022-10-17T09:38:42;16.30;99.90
32522;DHT22;18963;51.504;5.316;2022-10-17T09:41:29;16.40;99.90
32522;DHT22;18963;51.504;5.316;2022-10-17T09:43:57;16.40;99.90
32522;DHT22;18963;51.504;5.316;2022-10-17T09:46:36;16.50;99.90
32522;DHT22;18963;51.504;5.316;2022-10-17T09:49:11;16.40;99.90
32522;DHT22;18963;51.504;5.316;2022-10-17T09:51:39;16.40;99.90
32522;DHT22;18963;51.504;5.316;2022-10-17T09:54:32;16.40;99.90
32522;DHT22;18963;51.504;5.316;2022-10-17T09:57:06;16.40;99.90
32522;DHT22;18963;51.504;5.316;2022-10-17T09:59:44;16.50;99.90
32522;DHT22;18963;51.504;5.316;2022-10-17T10:02:19;16.50;99.90
32522;DHT22;18963;51.504;5.316;2022-10-17T10:05:24;16.50;99.90
32522;DHT22;18963;51.504;5.316;2022-10-17T10:08:12;16.60;99.90
32522;DHT22;18963;51.504;5.316;2022-10-17T10:10:38;16.60;99.90
32522;DHT22;18963;51.504;5.316;2022-10-17T10:15:47;16.70;99.90
32522;DHT22;18963;51.504;5.316;2022-10-17T10:18:35;16.80;99.90
32522;DHT22;18963;51.504;5.316;2022-10-17T10:21:15;16.80;99.90
32522;DHT22;18963;51.504;5.316;2022-10-17T10:26:43;16.80;99.90
32522;DHT22;18963;51.504;5.316;2022-10-17T10:29:48;16.80;99.90
32522;DHT22;18963;51.504;5.316;2022-10-17T10:34:51;16.90;99.90
32522;DHT22;18963;51.504;5.316;2022-10-17T10:37:22;17.00;99.90
32522;DHT22;18963;51.504;5.316;2022-10-17T10:39:54;17.00;99.90
32522;DHT22;18963;51.504;5.316;2022-10-17T10:42:25;17.00;99.90
32522;DHT22;18963;51.504;5.316;2022-10-17T10:44:53;17.10;99.90
32522;DHT22;18963;51.504;5.316;2022-10-17T10:47:28;17.10;99.90
32522;DHT22;18963;51.504;5.316;2022-10-17T10:50:19;17.00;99.90
32522;DHT22;18963;51.504;5.316;2022-10-17T10:55:28;17.00;99.90
32522;DHT22;18963;51.504;5.316;2022-10-17T10:58:00;17.00;99.90
32522;DHT22;18963;51.504;5.316;2022-10-17T11:00:28;16.90;99.90
32522;DHT22;18963;51.504;5.316;2022-10-17T11:03:13;16.90;99.90
32522;DHT22;18963;51.504;5.316;2022-10-17T11:06:03;16.90;99.90
32522;DHT22;18963;51.504;5.316;2022-10-17T11:08:39;16.90;99.90
32522;DHT22;18963;51.504;5.316;2022-10-17T11:11:31;16.90;99.90
32522;DHT22;18963;51.504;5.316;2022-10-17T11:14:02;17.00;99.90
32522;DHT22;18963;51.504;5.316;2022-10-17T11:16:41;17.00;99.90
32522;DHT22;18963;51.504;5.316;2022-10-17T11:24:45;17.10;99.90
32522;DHT22;18963;51.504;5.316;2022-10-17T11:27:13;17.10;99.90
32522;DHT22;18963;51.504;5.316;2022-10-17T11:29:40;17.10;99.90
32522;DHT22;18963;51.504;5.316;2022-10-17T11:32:16;17.10;99.90
32522;DHT22;18963;51.504;5.316;2022-10-17T11:34:46;17.10;99.90
32522;DHT22;18963;51.504;5.316;2022-10-17T11:37:19;17.10;99.90
32522;DHT22;18963;51.504;5.316;2022-10-17T11:42:36;17.10;99.90
32522;DHT22;18963;51.504;5.316;2022-10-17T11:45:14;17.10;99.90
32522;DHT22;18963;51.504;5.316;2022-10-17T11:47:45;17.10;99.90
32522;DHT22;18963;51.504;5.316;2022-10-17T11:50:29;17.10;99.90
32522;DHT22;18963;51.504;5.316;2022-10-17T11:53:03;17.10;99.90
32522;DHT22;18963;51.504;5.316;2022-10-17T11:55:30;17.10;99.90
32522;DHT22;18963;51.504;5.316;2022-10-17T11:58:22;17.20;99.90
32522;DHT22;18963;51.504;5.316;2022-10-17T12:11:52;17.30;99.90
32522;DHT22;18963;51.504;5.316;2022-10-17T12:14:38;17.40;99.90
32522;DHT22;18963;51.504;5.316;2022-10-17T12:17:21;17.40;99.90
32522;DHT22;18963;51.504;5.316;2022-10-17T12:19:47;17.40;99.90
32522;DHT22;18963;51.504;5.316;2022-10-17T12:22:25;17.40;99.90
32522;DHT22;18963;51.504;5.316;2022-10-17T12:25:01;17.40;99.90
32522;DHT22;18963;51.504;5.316;2022-10-17T12:27:43;17.40;99.90
32522;DHT22;18963;51.504;5.316;2022-10-17T12:30:15;17.40;99.90
32522;DHT22;18963;51.504;5.316;2022-10-17T12:35:38;17.50;99.90
32522;DHT22;18963;51.504;5.316;2022-10-17T12:45:47;17.80;99.90
32522;DHT22;18963;51.504;5.316;2022-10-17T12:51:18;17.90;99.90
32522;DHT22;18963;51.504;5.316;2022-10-17T12:56:34;18.00;99.90
32522;DHT22;18963;51.504;5.316;2022-10-17T12:59:21;17.90;99.90
32522;DHT22;18963;51.504;5.316;2022-10-17T13:01:55;17.90;99.90
32522;DHT22;18963;51.504;5.316;2022-10-17T13:04:26;17.80;99.90
32522;DHT22;18963;51.504;5.316;2022-10-17T13:06:54;17.80;99.90
32522;DHT22;18963;51.504;5.316;2022-10-17T13:09:25;17.70;99.90
32522;DHT22;18963;51.504;5.316;2022-10-17T13:11:55;17.70;99.90
32522;DHT22;18963;51.504;5.316;2022-10-17T13:14:25;17.60;99.90
32522;DHT22;18963;51.504;5.316;2022-10-17T13:16:54;17.60;99.90
32522;DHT22;18963;51.504;5.316;2022-10-17T13:19:24;17.50;99.90
32522;DHT22;18963;51.504;5.316;2022-10-17T13:24:41;17.50;99.90
32522;DHT22;18963;51.504;5.316;2022-10-17T13:27:23;17.50;99.90
32522;DHT22;18963;51.504;5.316;2022-10-17T13:29:49;17.40;99.90
32522;DHT22;18963;51.504;5.316;2022-10-17T13:32:15;17.40;99.90
32522;DHT22;18963;51.504;5.316;2022-10-17T13:34:41;17.40;99.90
32522;DHT22;18963;51.504;5.316;2022-10-17T13:37:11;17.40;99.90
32522;DHT22;18963;51.504;5.316;2022-10-17T13:39:41;17.40;99.90
32522;DHT22;18963;51.504;5.316;2022-10-17T13:42:27;17.40;99.90
32522;DHT22;18963;51.504;5.316;2022-10-17T13:44:54;17.40;99.90
32522;DHT22;18963;51.504;5.316;2022-10-17T13:47:31;17.40;99.90
32522;DHT22;18963;51.504;5.316;2022-10-17T13:49:58;17.30;99.90
32522;DHT22;18963;51.504;5.316;2022-10-17T13:52:27;17.30;99.90
32522;DHT22;18963;51.504;5.316;2022-10-17T13:54:54;17.30;99.90
32522;DHT22;18963;51.504;5.316;2022-10-17T13:57:24;17.30;99.90
32522;DHT22;18963;51.504;5.316;2022-10-17T13:59:58;17.30;99.90
32522;DHT22;18963;51.504;5.316;2022-10-17T14:02:27;17.40;99.90
32522;DHT22;18963;51.504;5.316;2022-10-17T14:04:59;17.40;99.90
32522;DHT22;18963;51.504;5.316;2022-10-17T14:07:36;17.40;99.90
32522;DHT22;18963;51.504;5.316;2022-10-17T14:10:02;17.40;99.90
32522;DHT22;18963;51.504;5.316;2022-10-17T14:12:31;17.50;99.90
32522;DHT22;18963;51.504;5.316;2022-10-17T14:14:57;17.50;99.90
32522;DHT22;18963;51.504;5.316;2022-10-17T14:17:25;17.50;99.90
32522;DHT22;18963;51.504;5.316;2022-10-17T14:20:16;17.50;99.90
32522;DHT22;18963;51.504;5.316;2022-10-17T14:22:42;17.50;99.90
32522;DHT22;18963;51.504;5.316;2022-10-17T14:25:34;17.50;99.90
32522;DHT22;18963;51.504;5.316;2022-10-17T14:28:01;17.60;99.90
32522;DHT22;18963;51.504;5.316;2022-10-17T14:30:35;17.60;99.90
32522;DHT22;18963;51.504;5.316;2022-10-17T14:33:02;17.60;99.90
32522;DHT22;18963;51.504;5.316;2022-10-17T14:35:30;17.70;99.90
32522;DHT22;18963;51.504;5.316;2022-10-17T14:38:03;17.70;99.90
32522;DHT22;18963;51.504;5.316;2022-10-17T14:40:31;17.70;99.90
32522;DHT22;18963;51.504;5.316;2022-10-17T14:42:59;17.70;99.90
32522;DHT22;18963;51.504;5.316;2022-10-17T14:45:27;17.70;99.90
32522;DHT22;18963;51.504;5.316;2022-10-17T14:47:58;17.80;99.90
32522;DHT22;18963;51.504;5.316;2022-10-17T14:50:29;17.80;99.90
32522;DHT22;18963;51.504;5.316;2022-10-17T14:55:26;17.80;99.90
32522;DHT22;18963;51.504;5.316;2022-10-17T14:57:52;17.80;99.90
32522;DHT22;18963;51.504;5.316;2022-10-17T15:00:19;17.80;99.90
32522;DHT22;18963;51.504;5.316;2022-10-17T15:02:46;17.90;99.90
32522;DHT22;18963;51.504;5.316;2022-10-17T15:05:13;17.90;99.90
32522;DHT22;18963;51.504;5.316;2022-10-17T15:07:39;17.90;99.90
32522;DHT22;18963;51.504;5.316;2022-10-17T15:10:05;17.90;99.90
32522;DHT22;18963;51.504;5.316;2022-10-17T15:12:31;17.90;99.90
32522;DHT22;18963;51.504;5.316;2022-10-17T15:14:57;17.80;99.90
32522;DHT22;18963;51.504;5.316;2022-10-17T15:17:29;17.80;99.90
32522;DHT22;18963;51.504;5.316;2022-10-17T15:19:56;17.90;99.90
32522;DHT22;18963;51.504;5.316;2022-10-17T15:22:22;17.90;99.90
32522;DHT22;18963;51.504;5.316;2022-10-17T15:24:48;17.80;99.90
32522;DHT22;18963;51.504;5.316;2022-10-17T15:27:19;17.80;99.90
32522;DHT22;18963;51.504;5.316;2022-10-17T15:29:45;17.80;99.90
32522;DHT22;18963;51.504;5.316;2022-10-17T15:32:11;17.90;99.90
32522;DHT22;18963;51.504;5.316;2022-10-17T15:34:37;17.80;99.90
32522;DHT22;18963;51.504;5.316;2022-10-17T15:37:04;17.80;99.90
32522;DHT22;18963;51.504;5.316;2022-10-17T15:39:30;17.80;99.90
32522;DHT22;18963;51.504;5.316;2022-10-17T15:41:56;17.70;99.90
32522;DHT22;18963;51.504;5.316;2022-10-17T15:44:22;17.70;99.90
32522;DHT22;18963;51.504;5.316;2022-10-17T15:46:47;17.70;99.90
32522;DHT22;18963;51.504;5.316;2022-10-17T15:49:15;17.60;99.90
32522;DHT22;18963;51.504;5.316;2022-10-17T15:51:42;17.60;99.90
32522;DHT22;18963;51.504;5.316;2022-10-17T15:54:08;17.50;99.90
32522;DHT22;18963;51.504;5.316;2022-10-17T15:56:36;17.50;99.90
32522;DHT22;18963;51.504;5.316;2022-10-17T15:59:13;17.50;99.90
32522;DHT22;18963;51.504;5.316;2022-10-17T16:01:40;17.40;99.90
32522;DHT22;18963;51.504;5.316;2022-10-17T16:04:08;17.40;99.90
32522;DHT22;18963;51.504;5.316;2022-10-17T16:06:33;17.40;99.90
32522;DHT22;18963;51.504;5.316;2022-10-17T16:08:59;17.30;99.90
32522;DHT22;18963;51.504;5.316;2022-10-17T16:11:30;17.30;99.90
32522;DHT22;18963;51.504;5.316;2022-10-17T16:13:59;17.20;99.90
32522;DHT22;18963;51.504;5.316;2022-10-17T16:16:25;17.20;99.90
32522;DHT22;18963;51.504;5.316;2022-10-17T16:18:51;17.10;99.90
32522;DHT22;18963;51.504;5.316;2022-10-17T16:21:18;17.10;99.90
32522;DHT22;18963;51.504;5.316;2022-10-17T16:23:44;17.10;99.90
32522;DHT22;18963;51.504;5.316;2022-10-17T16:26:10;17.00;99.90
32522;DHT22;18963;51.504;5.316;2022-10-17T16:28:40;17.00;99.90
32522;DHT22;18963;51.504;5.316;2022-10-17T16:31:47;16.90;99.90
32522;DHT22;18963;51.504;5.316;2022-10-17T16:34:05;16.90;99.90
32522;DHT22;18963;51.504;5.316;2022-10-17T16:36:33;16.80;99.90
32522;DHT22;18963;51.504;5.316;2022-10-17T16:38:59;16.80;99.90
32522;DHT22;18963;51.504;5.316;2022-10-17T16:41:28;16.80;99.90
32522;DHT22;18963;51.504;5.316;2022-10-17T16:43:55;16.70;99.90
32522;DHT22;18963;51.504;5.316;2022-10-17T16:46:22;16.70;99.90
32522;DHT22;18963;51.504;5.316;2022-10-17T16:48:48;16.70;99.90
32522;DHT22;18963;51.504;5.316;2022-10-17T16:51:15;16.60;99.90
32522;DHT22;18963;51.504;5.316;2022-10-17T16:53:43;16.60;99.90
32522;DHT22;18963;51.504;5.316;2022-10-17T16:56:21;16.60;99.90
32522;DHT22;18963;51.504;5.316;2022-10-17T16:58:47;16.50;99.90
32522;DHT22;18963;51.504;5.316;2022-10-17T17:01:28;16.50;99.90
32522;DHT22;18963;51.504;5.316;2022-10-17T17:03:54;16.40;99.90
32522;DHT22;18963;51.504;5.316;2022-10-17T17:06:23;16.40;99.90
32522;DHT22;18963;51.504;5.316;2022-10-17T17:08:49;16.40;99.90
32522;DHT22;18963;51.504;5.316;2022-10-17T17:11:17;16.30;99.90
32522;DHT22;18963;51.504;5.316;2022-10-17T17:13:43;16.30;99.90
32522;DHT22;18963;51.504;5.316;2022-10-17T17:16:15;16.30;99.90
32522;DHT22;18963;51.504;5.316;2022-10-17T17:19:09;16.30;99.90
32522;DHT22;18963;51.504;5.316;2022-10-17T17:21:41;16.20;99.90
32522;DHT22;18963;51.504;5.316;2022-10-17T17:24:24;16.20;99.90
32522;DHT22;18963;51.504;5.316;2022-10-17T17:26:52;16.20;99.90
32522;DHT22;18963;51.504;5.316;2022-10-17T17:29:18;16.20;99.90
32522;DHT22;18963;51.504;5.316;2022-10-17T17:31:43;16.10;99.90
32522;DHT22;18963;51.504;5.316;2022-10-17T17:34:12;16.10;99.90
32522;DHT22;18963;51.504;5.316;2022-10-17T17:36:41;16.10;99.90
32522;DHT22;18963;51.504;5.316;2022-10-17T17:39:12;16.10;99.90
32522;DHT22;18963;51.504;5.316;2022-10-17T17:41:42;16.10;99.90
32522;DHT22;18963;51.504;5.316;2022-10-17T17:44:09;16.00;99.90
32522;DHT22;18963;51.504;5.316;2022-10-17T17:46:41;16.00;99.90